sensor_id;sensor_type;location;lat;lon;timestamp;temperature;humidity
40676;DHT22;26359;48.750;9.314;2023-01-15T00:00:13;10.60;99.90
40676;DHT22;26359;48.750;9.314;2023-01-15T00:02:39;10.70;99.90
40676;DHT22;26359;48.750;9.314;2023-01-15T00:05:05;10.60;99.90
40676;DHT22;26359;48.750;9.314;2023-01-15T00:07:31;10.60;99.90
40676;DHT22;26359;48.750;9.314;2023-01-15T00:09:56;10.60;99.90
40676;DHT22;26359;48.750;9.314;2023-01-15T00:12:22;10.60;99.90
40676;DHT22;26359;48.750;9.314;2023-01-15T00:14:47;10.50;99.90
40676;DHT22;26359;48.750;9.314;2023-01-15T00:17:13;10.50;99.90
40676;DHT22;26359;48.750;9.314;2023-01-15T00:19:38;10.50;99.90
40676;DHT22;26359;48.750;9.314;2023-01-15T00:22:04;10.60;99.90
40676;DHT22;26359;48.750;9.314;2023-01-15T00:24:30;10.60;99.90
40676;DHT22;26359;48.750;9.314;2023-01-15T00:27:14;10.60;99.90
40676;DHT22;26359;48.750;9.314;2023-01-15T00:29:58;10.60;99.90
40676;DHT22;26359;48.750;9.314;2023-01-15T00:32:23;10.50;99.90
40676;DHT22;26359;48.750;9.314;2023-01-15T00:34:52;10.60;99.90
40676;DHT22;26359;48.750;9.314;2023-01-15T00:37:17;10.50;99.90
40676;DHT22;26359;48.750;9.314;2023-01-15T00:39:43;10.60;99.90
40676;DHT22;26359;48.750;9.314;2023-01-15T00:42:10;10.60;99.90
40676;DHT22;26359;48.750;9.314;2023-01-15T00:44:36;10.60;99.90
40676;DHT22;26359;48.750;9.314;2023-01-15T00:47:01;10.60;99.90
40676;DHT22;26359;48.750;9.314;2023-01-15T00:49:27;10.60;99.90
40676;DHT22;26359;48.750;9.314;2023-01-15T00:51:53;10.60;99.90
40676;DHT22;26359;48.750;9.314;2023-01-15T00:54:18;10.60;99.90
40676;DHT22;26359;48.750;9.314;2023-01-15T00:56:44;10.60;99.90
40676;DHT22;26359;48.750;9.314;2023-01-15T00:59:10;10.70;99.90
40676;DHT22;26359;48.750;9.314;2023-01-15T01:01:36;10.80;99.90
40676;DHT22;26359;48.750;9.314;2023-01-15T01:04:02;10.80;99.90
40676;DHT22;26359;48.750;9.314;2023-01-15T01:06:27;10.70;99.90
40676;DHT22;26359;48.750;9.314;2023-01-15T01:08:53;10.70;99.90
40676;DHT22;26359;48.750;9.314;2023-01-15T01:11:21;10.80;99.90
40676;DHT22;26359;48.750;9.314;2023-01-15T01:13:52;10.80;99.90
40676;DHT22;26359;48.750;9.314;2023-01-15T01:16:24;10.70;99.90
40676;DHT22;26359;48.750;9.314;2023-01-15T01:18:51;10.80;99.90
40676;DHT22;26359;48.750;9.314;2023-01-15T01:21:17;10.90;99.90
40676;DHT22;26359;48.750;9.314;2023-01-15T01:23:43;10.90;99.90
40676;DHT22;26359;48.750;9.314;2023-01-15T01:26:09;11.10;99.90
40676;DHT22;26359;48.750;9.314;2023-01-15T01:28:35;11.10;99.90
40676;DHT22;26359;48.750;9.314;2023-01-15T01:31:04;11.10;99.90
40676;DHT22;26359;48.750;9.314;2023-01-15T01:33:30;11.10;99.90
40676;DHT22;26359;48.750;9.314;2023-01-15T01:35:55;11.10;99.90
40676;DHT22;26359;48.750;9.314;2023-01-15T01:38:21;11.10;99.90
40676;DHT22;26359;48.750;9.314;2023-01-15T01:40:46;11.10;99.90
40676;DHT22;26359;48.750;9.314;2023-01-15T01:43:24;11.10;99.90
40676;DHT22;26359;48.750;9.314;2023-01-15T01:45:50;11.00;99.90
40676;DHT22;26359;48.750;9.314;2023-01-15T01:48:18;11.00;99.90
40676;DHT22;26359;48.750;9.314;2023-01-15T01:50:45;11.10;99.90
40676;DHT22;26359;48.750;9.314;2023-01-15T01:53:19;11.10;99.90
40676;DHT22;26359;48.750;9.314;2023-01-15T01:55:46;11.10;99.90
40676;DHT22;26359;48.750;9.314;2023-01-15T01:58:12;11.10;99.90
40676;DHT22;26359;48.750;9.314;2023-01-15T02:00:42;11.10;99.90
40676;DHT22;26359;48.750;9.314;2023-01-15T02:03:09;11.10;99.90
40676;DHT22;26359;48.750;9.314;2023-01-15T02:05:38;11.10;99.90
40676;DHT22;26359;48.750;9.314;2023-01-15T02:08:05;11.10;99.90
40676;DHT22;26359;48.750;9.314;2023-01-15T02:10:31;11.10;99.90
40676;DHT22;26359;48.750;9.314;2023-01-15T02:13:13;11.10;99.90
40676;DHT22;26359;48.750;9.314;2023-01-15T02:15:51;11.10;99.90
40676;DHT22;26359;48.750;9.314;2023-01-15T02:18:21;11.20;99.90
40676;DHT22;26359;48.750;9.314;2023-01-15T02:23:31;11.10;99.90
40676;DHT22;26359;48.750;9.314;2023-01-15T02:28:41;11.10;99.90
40676;DHT22;26359;48.750;9.314;2023-01-15T02:31:14;11.20;99.90
40676;DHT22;26359;48.750;9.314;2023-01-15T02:36:18;11.20;99.90
40676;DHT22;26359;48.750;9.314;2023-01-15T02:38:47;11.20;99.90
40676;DHT22;26359;48.750;9.314;2023-01-15T02:41:14;11.20;99.90
40676;DHT22;26359;48.750;9.314;2023-01-15T02:43:44;11.20;99.90
40676;DHT22;26359;48.750;9.314;2023-01-15T02:46:14;11.20;99.90
40676;DHT22;26359;48.750;9.314;2023-01-15T02:48:43;11.20;99.90
40676;DHT22;26359;48.750;9.314;2023-01-15T02:51:16;11.20;99.90
40676;DHT22;26359;48.750;9.314;2023-01-15T02:53:45;11.20;99.90
40676;DHT22;26359;48.750;9.314;2023-01-15T02:56:15;11.20;99.90
40676;DHT22;26359;48.750;9.314;2023-01-15T02:58:43;11.20;99.90
40676;DHT22;26359;48.750;9.314;2023-01-15T03:01:19;11.20;99.90
40676;DHT22;26359;48.750;9.314;2023-01-15T03:03:51;11.30;99.90
40676;DHT22;26359;48.750;9.314;2023-01-15T03:09:06;11.20;99.90
40676;DHT22;26359;48.750;9.314;2023-01-15T03:11:40;11.20;99.90
40676;DHT22;26359;48.750;9.314;2023-01-15T03:14:18;11.20;99.90
40676;DHT22;26359;48.750;9.314;2023-01-15T03:16:53;11.10;99.90
40676;DHT22;26359;48.750;9.314;2023-01-15T03:19:40;11.20;99.90
40676;DHT22;26359;48.750;9.314;2023-01-15T03:24:43;11.20;99.90
40676;DHT22;26359;48.750;9.314;2023-01-15T03:27:10;11.20;99.90
40676;DHT22;26359;48.750;9.314;2023-01-15T03:29:42;11.20;99.90
40676;DHT22;26359;48.750;9.314;2023-01-15T03:32:09;11.20;99.90
40676;DHT22;26359;48.750;9.314;2023-01-15T03:35:01;11.20;99.90
40676;DHT22;26359;48.750;9.314;2023-01-15T03:37:28;11.20;99.90
40676;DHT22;26359;48.750;9.314;2023-01-15T03:39:55;11.20;99.90
40676;DHT22;26359;48.750;9.314;2023-01-15T03:42:48;11.10;99.90
40676;DHT22;26359;48.750;9.314;2023-01-15T03:45:26;11.10;99.90
40676;DHT22;26359;48.750;9.314;2023-01-15T03:47:59;11.10;99.90
40676;DHT22;26359;48.750;9.314;2023-01-15T03:50:41;11.10;99.90
40676;DHT22;26359;48.750;9.314;2023-01-15T03:53:19;11.00;99.90
40676;DHT22;26359;48.750;9.314;2023-01-15T03:56:02;11.00;99.90
40676;DHT22;26359;48.750;9.314;2023-01-15T03:58:44;10.90;99.90
40676;DHT22;26359;48.750;9.314;2023-01-15T04:01:14;10.90;99.90
40676;DHT22;26359;48.750;9.314;2023-01-15T04:03:41;10.90;99.90
40676;DHT22;26359;48.750;9.314;2023-01-15T04:06:08;11.00;99.90
40676;DHT22;26359;48.750;9.314;2023-01-15T04:08:38;10.90;99.90
40676;DHT22;26359;48.750;9.314;2023-01-15T04:11:05;10.90;99.90
40676;DHT22;26359;48.750;9.314;2023-01-15T04:13:31;10.90;99.90
40676;DHT22;26359;48.750;9.314;2023-01-15T04:15:57;10.90;99.90
40676;DHT22;26359;48.750;9.314;2023-01-15T04:18:23;10.90;99.90
40676;DHT22;26359;48.750;9.314;2023-01-15T04:20:48;10.90;99.90
40676;DHT22;26359;48.750;9.314;2023-01-15T04:23:14;10.90;99.90
40676;DHT22;26359;48.750;9.314;2023-01-15T04:25:40;10.90;99.90
40676;DHT22;26359;48.750;9.314;2023-01-15T04:28:06;11.00;99.90
40676;DHT22;26359;48.750;9.314;2023-01-15T04:30:33;11.00;99.90
40676;DHT22;26359;48.750;9.314;2023-01-15T04:32:59;11.00;99.90
40676;DHT22;26359;48.750;9.314;2023-01-15T04:35:25;10.90;99.90
40676;DHT22;26359;48.750;9.314;2023-01-15T04:37:57;10.90;99.90
40676;DHT22;26359;48.750;9.314;2023-01-15T04:40:23;10.90;99.90
40676;DHT22;26359;48.750;9.314;2023-01-15T04:43:12;11.00;99.90
40676;DHT22;26359;48.750;9.314;2023-01-15T04:45:57;11.00;99.90
40676;DHT22;26359;48.750;9.314;2023-01-15T04:48:23;10.90;99.90
40676;DHT22;26359;48.750;9.314;2023-01-15T04:50:48;10.90;99.90
40676;DHT22;26359;48.750;9.314;2023-01-15T04:53:14;10.90;99.90
40676;DHT22;26359;48.750;9.314;2023-01-15T04:55:40;10.90;99.90
40676;DHT22;26359;48.750;9.314;2023-01-15T04:58:05;10.90;99.90
40676;DHT22;26359;48.750;9.314;2023-01-15T05:00:31;10.90;99.90
40676;DHT22;26359;48.750;9.314;2023-01-15T05:02:56;10.90;99.90
40676;DHT22;26359;48.750;9.314;2023-01-15T05:05:22;10.90;99.90
40676;DHT22;26359;48.750;9.314;2023-01-15T05:07:47;10.90;99.90
40676;DHT22;26359;48.750;9.314;2023-01-15T05:10:13;10.80;99.90
40676;DHT22;26359;48.750;9.314;2023-01-15T05:12:38;10.80;99.90
40676;DHT22;26359;48.750;9.314;2023-01-15T05:15:04;10.80;99.90
40676;DHT22;26359;48.750;9.314;2023-01-15T05:17:31;10.90;99.90
40676;DHT22;26359;48.750;9.314;2023-01-15T05:19:57;10.80;99.90
40676;DHT22;26359;48.750;9.314;2023-01-15T05:22:22;10.80;99.90
40676;DHT22;26359;48.750;9.314;2023-01-15T05:24:48;10.80;99.90
40676;DHT22;26359;48.750;9.314;2023-01-15T05:27:14;10.80;99.90
40676;DHT22;26359;48.750;9.314;2023-01-15T05:29:39;10.90;99.90
40676;DHT22;26359;48.750;9.314;2023-01-15T05:32:05;10.90;99.90
40676;DHT22;26359;48.750;9.314;2023-01-15T05:34:30;10.90;99.90
40676;DHT22;26359;48.750;9.314;2023-01-15T05:36:56;11.00;99.90
40676;DHT22;26359;48.750;9.314;2023-01-15T05:39:21;10.90;99.90
40676;DHT22;26359;48.750;9.314;2023-01-15T05:41:47;11.00;99.90
40676;DHT22;26359;48.750;9.314;2023-01-15T05:44:21;10.80;99.90
40676;DHT22;26359;48.750;9.314;2023-01-15T05:46:48;10.10;99.90
40676;DHT22;26359;48.750;9.314;2023-01-15T05:49:17;9.70;99.90
40676;DHT22;26359;48.750;9.314;2023-01-15T05:51:43;9.40;99.90
40676;DHT22;26359;48.750;9.314;2023-01-15T05:54:16;9.00;99.90
40676;DHT22;26359;48.750;9.314;2023-01-15T05:56:42;8.90;99.90
40676;DHT22;26359;48.750;9.314;2023-01-15T05:59:10;8.70;99.90
40676;DHT22;26359;48.750;9.314;2023-01-15T06:01:35;8.60;99.90
40676;DHT22;26359;48.750;9.314;2023-01-15T06:04:02;8.40;99.90
40676;DHT22;26359;48.750;9.314;2023-01-15T06:06:28;8.20;99.90
40676;DHT22;26359;48.750;9.314;2023-01-15T06:08:54;8.20;99.90
40676;DHT22;26359;48.750;9.314;2023-01-15T06:11:20;8.20;99.90
40676;DHT22;26359;48.750;9.314;2023-01-15T06:13:45;8.10;99.90
40676;DHT22;26359;48.750;9.314;2023-01-15T06:16:11;8.10;99.90
40676;DHT22;26359;48.750;9.314;2023-01-15T06:18:38;8.10;99.90
40676;DHT22;26359;48.750;9.314;2023-01-15T06:21:05;8.20;99.90
40676;DHT22;26359;48.750;9.314;2023-01-15T06:23:31;8.20;99.90
40676;DHT22;26359;48.750;9.314;2023-01-15T06:26:04;8.10;99.90
40676;DHT22;26359;48.750;9.314;2023-01-15T06:28:30;8.10;99.90
40676;DHT22;26359;48.750;9.314;2023-01-15T06:30:56;8.00;99.90
40676;DHT22;26359;48.750;9.314;2023-01-15T06:33:22;8.00;99.90
40676;DHT22;26359;48.750;9.314;2023-01-15T06:35:48;8.00;99.90
40676;DHT22;26359;48.750;9.314;2023-01-15T06:38:13;8.00;99.90
40676;DHT22;26359;48.750;9.314;2023-01-15T06:40:39;7.90;99.90
40676;DHT22;26359;48.750;9.314;2023-01-15T06:43:05;7.80;99.90
40676;DHT22;26359;48.750;9.314;2023-01-15T06:45:50;7.80;99.90
40676;DHT22;26359;48.750;9.314;2023-01-15T06:48:34;7.80;99.90
40676;DHT22;26359;48.750;9.314;2023-01-15T06:50:59;7.70;99.90
40676;DHT22;26359;48.750;9.314;2023-01-15T06:53:25;7.60;99.90
40676;DHT22;26359;48.750;9.314;2023-01-15T06:55:50;7.50;99.90
40676;DHT22;26359;48.750;9.314;2023-01-15T06:58:16;7.40;99.90
40676;DHT22;26359;48.750;9.314;2023-01-15T07:00:42;7.30;99.90
40676;DHT22;26359;48.750;9.314;2023-01-15T07:03:09;7.20;99.90
40676;DHT22;26359;48.750;9.314;2023-01-15T07:05:39;7.20;99.90
40676;DHT22;26359;48.750;9.314;2023-01-15T07:08:05;7.10;99.90
40676;DHT22;26359;48.750;9.314;2023-01-15T07:10:33;7.20;99.90
40676;DHT22;26359;48.750;9.314;2023-01-15T07:12:59;7.10;99.90
40676;DHT22;26359;48.750;9.314;2023-01-15T07:15:25;7.10;99.90
40676;DHT22;26359;48.750;9.314;2023-01-15T07:17:59;7.00;99.90
40676;DHT22;26359;48.750;9.314;2023-01-15T07:20:25;7.00;99.90
40676;DHT22;26359;48.750;9.314;2023-01-15T07:22:51;6.90;99.90
40676;DHT22;26359;48.750;9.314;2023-01-15T07:25:17;6.90;99.90
40676;DHT22;26359;48.750;9.314;2023-01-15T07:27:45;6.80;99.90
40676;DHT22;26359;48.750;9.314;2023-01-15T07:30:11;6.60;99.90
40676;DHT22;26359;48.750;9.314;2023-01-15T07:32:36;6.60;99.90
40676;DHT22;26359;48.750;9.314;2023-01-15T07:35:02;6.50;99.90
40676;DHT22;26359;48.750;9.314;2023-01-15T07:37:28;6.50;99.90
40676;DHT22;26359;48.750;9.314;2023-01-15T07:39:53;6.50;99.90
40676;DHT22;26359;48.750;9.314;2023-01-15T07:42:19;6.40;99.90
40676;DHT22;26359;48.750;9.314;2023-01-15T07:45:03;6.50;99.90
40676;DHT22;26359;48.750;9.314;2023-01-15T07:47:47;6.50;99.90
40676;DHT22;26359;48.750;9.314;2023-01-15T07:50:32;6.30;99.90
40676;DHT22;26359;48.750;9.314;2023-01-15T07:52:57;6.30;99.90
40676;DHT22;26359;48.750;9.314;2023-01-15T07:55:23;6.20;99.90
40676;DHT22;26359;48.750;9.314;2023-01-15T07:57:49;6.20;99.90
40676;DHT22;26359;48.750;9.314;2023-01-15T08:00:19;6.30;99.90
40676;DHT22;26359;48.750;9.314;2023-01-15T08:02:45;6.30;99.90
40676;DHT22;26359;48.750;9.314;2023-01-15T08:05:14;6.30;99.90
40676;DHT22;26359;48.750;9.314;2023-01-15T08:07:40;6.20;99.90
40676;DHT22;26359;48.750;9.314;2023-01-15T08:10:08;6.30;99.90
40676;DHT22;26359;48.750;9.314;2023-01-15T08:12:34;6.30;99.90
40676;DHT22;26359;48.750;9.314;2023-01-15T08:15:18;6.30;99.90
40676;DHT22;26359;48.750;9.314;2023-01-15T08:17:48;6.20;99.90
40676;DHT22;26359;48.750;9.314;2023-01-15T08:20:18;6.20;99.90
40676;DHT22;26359;48.750;9.314;2023-01-15T08:22:45;6.20;99.90
40676;DHT22;26359;48.750;9.314;2023-01-15T08:25:16;6.20;99.90
40676;DHT22;26359;48.750;9.314;2023-01-15T08:27:42;6.20;99.90
40676;DHT22;26359;48.750;9.314;2023-01-15T08:30:18;6.30;99.90
40676;DHT22;26359;48.750;9.314;2023-01-15T08:32:44;6.20;99.90
40676;DHT22;26359;48.750;9.314;2023-01-15T08:35:10;6.20;99.90
40676;DHT22;26359;48.750;9.314;2023-01-15T08:37:38;6.20;99.90
40676;DHT22;26359;48.750;9.314;2023-01-15T08:40:04;6.20;99.90
40676;DHT22;26359;48.750;9.314;2023-01-15T08:42:30;6.30;99.90
40676;DHT22;26359;48.750;9.314;2023-01-15T08:44:55;6.20;99.90
40676;DHT22;26359;48.750;9.314;2023-01-15T08:47:21;6.30;99.90
40676;DHT22;26359;48.750;9.314;2023-01-15T08:49:46;6.20;99.90
40676;DHT22;26359;48.750;9.314;2023-01-15T08:52:15;6.20;99.90
40676;DHT22;26359;48.750;9.314;2023-01-15T08:54:41;6.20;99.90
40676;DHT22;26359;48.750;9.314;2023-01-15T08:57:07;6.20;99.90
40676;DHT22;26359;48.750;9.314;2023-01-15T08:59:34;6.30;99.90
40676;DHT22;26359;48.750;9.314;2023-01-15T09:01:59;6.20;99.90
40676;DHT22;26359;48.750;9.314;2023-01-15T09:04:25;6.30;99.90
40676;DHT22;26359;48.750;9.314;2023-01-15T09:06:51;6.30;99.90
40676;DHT22;26359;48.750;9.314;2023-01-15T09:09:17;6.30;99.90
40676;DHT22;26359;48.750;9.314;2023-01-15T09:11:44;6.40;99.90
40676;DHT22;26359;48.750;9.314;2023-01-15T09:14:12;6.30;99.90
40676;DHT22;26359;48.750;9.314;2023-01-15T09:16:38;6.30;99.90
40676;DHT22;26359;48.750;9.314;2023-01-15T09:19:05;6.40;99.90
40676;DHT22;26359;48.750;9.314;2023-01-15T09:21:31;6.40;99.90
40676;DHT22;26359;48.750;9.314;2023-01-15T09:23:57;6.40;99.90
40676;DHT22;26359;48.750;9.314;2023-01-15T09:28:56;6.50;99.90
40676;DHT22;26359;48.750;9.314;2023-01-15T09:31:23;6.60;99.90
40676;DHT22;26359;48.750;9.314;2023-01-15T09:33:49;6.60;99.90
40676;DHT22;26359;48.750;9.314;2023-01-15T09:36:29;6.50;99.90
40676;DHT22;26359;48.750;9.314;2023-01-15T09:38:55;6.60;99.90
40676;DHT22;26359;48.750;9.314;2023-01-15T09:41:23;6.60;99.90
40676;DHT22;26359;48.750;9.314;2023-01-15T09:44:20;6.60;99.90
40676;DHT22;26359;48.750;9.314;2023-01-15T09:47:08;6.60;99.90
40676;DHT22;26359;48.750;9.314;2023-01-15T09:55:29;6.40;99.90
40676;DHT22;26359;48.750;9.314;2023-01-15T09:57:58;6.30;99.90
40676;DHT22;26359;48.750;9.314;2023-01-15T10:00:26;6.40;99.90
40676;DHT22;26359;48.750;9.314;2023-01-15T10:05:47;6.50;99.90
40676;DHT22;26359;48.750;9.314;2023-01-15T10:08:31;6.50;99.90
40676;DHT22;26359;48.750;9.314;2023-01-15T10:11:27;6.60;99.90
40676;DHT22;26359;48.750;9.314;2023-01-15T10:14:19;6.60;99.90
40676;DHT22;26359;48.750;9.314;2023-01-15T10:16:48;6.60;99.90
40676;DHT22;26359;48.750;9.314;2023-01-15T10:19:14;6.50;99.90
40676;DHT22;26359;48.750;9.314;2023-01-15T10:26:55;6.60;99.90
40676;DHT22;26359;48.750;9.314;2023-01-15T10:30:31;6.40;99.90
40676;DHT22;26359;48.750;9.314;2023-01-15T10:32:46;6.20;99.90
40676;DHT22;26359;48.750;9.314;2023-01-15T10:45:50;5.60;99.90
40676;DHT22;26359;48.750;9.314;2023-01-15T10:51:11;5.50;99.90
40676;DHT22;26359;48.750;9.314;2023-01-15T10:53:50;5.50;99.90
40676;DHT22;26359;48.750;9.314;2023-01-15T10:58:59;5.60;99.90
40676;DHT22;26359;48.750;9.314;2023-01-15T11:01:29;5.70;99.90
40676;DHT22;26359;48.750;9.314;2023-01-15T11:03:55;5.70;99.90
40676;DHT22;26359;48.750;9.314;2023-01-15T11:06:22;5.80;99.90
40676;DHT22;26359;48.750;9.314;2023-01-15T11:08:52;5.80;99.90
40676;DHT22;26359;48.750;9.314;2023-01-15T11:14:14;5.40;99.90
40676;DHT22;26359;48.750;9.314;2023-01-15T11:16:58;5.20;99.90
40676;DHT22;26359;48.750;9.314;2023-01-15T11:19:39;5.10;99.90
40676;DHT22;26359;48.750;9.314;2023-01-15T11:24:57;4.70;99.90
40676;DHT22;26359;48.750;9.314;2023-01-15T11:27:29;4.60;99.90
40676;DHT22;26359;48.750;9.314;2023-01-15T11:29:59;4.60;99.90
40676;DHT22;26359;48.750;9.314;2023-01-15T11:32:36;4.60;99.90
40676;DHT22;26359;48.750;9.314;2023-01-15T11:35:22;4.50;99.90
40676;DHT22;26359;48.750;9.314;2023-01-15T11:37:47;4.40;99.90
40676;DHT22;26359;48.750;9.314;2023-01-15T11:40:20;4.40;99.90
40676;DHT22;26359;48.750;9.314;2023-01-15T11:42:48;4.40;99.90
40676;DHT22;26359;48.750;9.314;2023-01-15T11:45:33;4.40;99.90
40676;DHT22;26359;48.750;9.314;2023-01-15T11:48:20;4.30;99.90
40676;DHT22;26359;48.750;9.314;2023-01-15T11:51:26;4.30;99.90
40676;DHT22;26359;48.750;9.314;2023-01-15T11:53:54;4.30;99.90
40676;DHT22;26359;48.750;9.314;2023-01-15T11:56:25;4.20;99.90
40676;DHT22;26359;48.750;9.314;2023-01-15T11:58:56;4.30;99.90
40676;DHT22;26359;48.750;9.314;2023-01-15T12:01:25;4.30;99.90
40676;DHT22;26359;48.750;9.314;2023-01-15T12:04:00;4.40;99.90
40676;DHT22;26359;48.750;9.314;2023-01-15T12:06:28;4.40;99.90
40676;DHT22;26359;48.750;9.314;2023-01-15T12:09:14;4.40;99.90
40676;DHT22;26359;48.750;9.314;2023-01-15T12:25:47;4.50;99.90
40676;DHT22;26359;48.750;9.314;2023-01-15T12:28:21;4.60;99.90
40676;DHT22;26359;48.750;9.314;2023-01-15T12:33:42;4.60;99.90
40676;DHT22;26359;48.750;9.314;2023-01-15T12:36:20;4.60;99.90
40676;DHT22;26359;48.750;9.314;2023-01-15T12:38:59;4.70;99.90
40676;DHT22;26359;48.750;9.314;2023-01-15T12:41:37;4.70;99.90
40676;DHT22;26359;48.750;9.314;2023-01-15T12:44:54;4.50;99.90
40676;DHT22;26359;48.750;9.314;2023-01-15T12:47:49;4.60;99.90
40676;DHT22;26359;48.750;9.314;2023-01-15T12:55:29;4.50;99.90
40676;DHT22;26359;48.750;9.314;2023-01-15T12:57:59;4.60;99.90
40676;DHT22;26359;48.750;9.314;2023-01-15T13:00:34;4.60;99.90
40676;DHT22;26359;48.750;9.314;2023-01-15T13:03:26;4.70;99.90
40676;DHT22;26359;48.750;9.314;2023-01-15T13:05:58;4.70;99.90
40676;DHT22;26359;48.750;9.314;2023-01-15T13:08:44;4.70;99.90
40676;DHT22;26359;48.750;9.314;2023-01-15T13:11:14;4.70;99.90
40676;DHT22;26359;48.750;9.314;2023-01-15T13:13:41;4.80;99.90
40676;DHT22;26359;48.750;9.314;2023-01-15T13:19:36;4.80;99.90
40676;DHT22;26359;48.750;9.314;2023-01-15T13:22:12;4.70;99.90
40676;DHT22;26359;48.750;9.314;2023-01-15T13:25:23;4.80;99.90
40676;DHT22;26359;48.750;9.314;2023-01-15T13:28:07;4.80;99.90
40676;DHT22;26359;48.750;9.314;2023-01-15T13:33:27;4.80;99.90
40676;DHT22;26359;48.750;9.314;2023-01-15T13:36:02;4.90;99.90
40676;DHT22;26359;48.750;9.314;2023-01-15T13:38:31;4.90;99.90
40676;DHT22;26359;48.750;9.314;2023-01-15T13:41:05;5.00;99.90
40676;DHT22;26359;48.750;9.314;2023-01-15T13:43:35;5.00;99.90
40676;DHT22;26359;48.750;9.314;2023-01-15T13:46:05;5.00;99.90
40676;DHT22;26359;48.750;9.314;2023-01-15T13:48:51;4.90;99.90
40676;DHT22;26359;48.750;9.314;2023-01-15T13:51:32;4.90;99.90
40676;DHT22;26359;48.750;9.314;2023-01-15T13:54:03;5.00;99.90
40676;DHT22;26359;48.750;9.314;2023-01-15T13:56:32;5.10;99.90
40676;DHT22;26359;48.750;9.314;2023-01-15T13:59:05;5.00;99.90
40676;DHT22;26359;48.750;9.314;2023-01-15T14:01:36;5.00;99.90
40676;DHT22;26359;48.750;9.314;2023-01-15T14:06:46;5.00;99.90
40676;DHT22;26359;48.750;9.314;2023-01-15T14:23:28;6.20;99.90
40676;DHT22;26359;48.750;9.314;2023-01-15T14:28:38;6.50;99.90
40676;DHT22;26359;48.750;9.314;2023-01-15T14:34:11;6.40;99.90
40676;DHT22;26359;48.750;9.314;2023-01-15T14:36:56;6.30;99.90
40676;DHT22;26359;48.750;9.314;2023-01-15T14:42:05;6.50;99.90
40676;DHT22;26359;48.750;9.314;2023-01-15T14:45:03;6.40;99.90
40676;DHT22;26359;48.750;9.314;2023-01-15T14:47:34;6.40;99.90
40676;DHT22;26359;48.750;9.314;2023-01-15T14:50:03;6.30;99.90
40676;DHT22;26359;48.750;9.314;2023-01-15T14:52:45;6.30;99.90
40676;DHT22;26359;48.750;9.314;2023-01-15T14:55:12;6.10;99.90
40676;DHT22;26359;48.750;9.314;2023-01-15T14:57:38;6.10;99.90
40676;DHT22;26359;48.750;9.314;2023-01-15T15:00:06;6.20;99.90
40676;DHT22;26359;48.750;9.314;2023-01-15T15:02:38;6.10;99.90
40676;DHT22;26359;48.750;9.314;2023-01-15T15:05:13;6.20;99.90
40676;DHT22;26359;48.750;9.314;2023-01-15T15:07:43;6.20;99.90
40676;DHT22;26359;48.750;9.314;2023-01-15T15:13:08;6.10;99.90
40676;DHT22;26359;48.750;9.314;2023-01-15T15:15:58;6.00;99.90
40676;DHT22;26359;48.750;9.314;2023-01-15T15:18:40;5.90;99.90
40676;DHT22;26359;48.750;9.314;2023-01-15T15:21:15;5.90;99.90
40676;DHT22;26359;48.750;9.314;2023-01-15T15:23:50;5.80;99.90
40676;DHT22;26359;48.750;9.314;2023-01-15T15:26:31;5.60;99.90
40676;DHT22;26359;48.750;9.314;2023-01-15T15:31:25;5.70;99.90
40676;DHT22;26359;48.750;9.314;2023-01-15T15:33:55;5.80;99.90
40676;DHT22;26359;48.750;9.314;2023-01-15T15:36:23;5.80;99.90
40676;DHT22;26359;48.750;9.314;2023-01-15T15:38:53;5.50;99.90
40676;DHT22;26359;48.750;9.314;2023-01-15T15:41:21;5.50;99.90
40676;DHT22;26359;48.750;9.314;2023-01-15T15:44:17;5.50;99.90
40676;DHT22;26359;48.750;9.314;2023-01-15T15:47:18;5.50;99.90
40676;DHT22;26359;48.750;9.314;2023-01-15T15:50:02;5.30;99.90
40676;DHT22;26359;48.750;9.314;2023-01-15T15:52:27;5.30;99.90
40676;DHT22;26359;48.750;9.314;2023-01-15T15:55:01;5.30;99.90
40676;DHT22;26359;48.750;9.314;2023-01-15T15:57:31;5.30;99.90
40676;DHT22;26359;48.750;9.314;2023-01-15T15:59:58;5.30;99.90
40676;DHT22;26359;48.750;9.314;2023-01-15T16:04:54;5.10;99.90
40676;DHT22;26359;48.750;9.314;2023-01-15T16:07:23;5.20;99.90
40676;DHT22;26359;48.750;9.314;2023-01-15T16:09:56;5.10;99.90
40676;DHT22;26359;48.750;9.314;2023-01-15T16:12:23;5.10;99.90
40676;DHT22;26359;48.750;9.314;2023-01-15T16:14:51;5.00;99.90
40676;DHT22;26359;48.750;9.314;2023-01-15T16:17:18;4.90;99.90
40676;DHT22;26359;48.750;9.314;2023-01-15T16:19:44;5.00;99.90
40676;DHT22;26359;48.750;9.314;2023-01-15T16:22:14;4.90;99.90
40676;DHT22;26359;48.750;9.314;2023-01-15T16:24:54;4.90;99.90
40676;DHT22;26359;48.750;9.314;2023-01-15T16:27:20;4.80;99.90
40676;DHT22;26359;48.750;9.314;2023-01-15T16:29:49;4.90;99.90
40676;DHT22;26359;48.750;9.314;2023-01-15T16:32:21;4.80;99.90
40676;DHT22;26359;48.750;9.314;2023-01-15T16:34:47;4.90;99.90
40676;DHT22;26359;48.750;9.314;2023-01-15T16:37:27;4.80;99.90
40676;DHT22;26359;48.750;9.314;2023-01-15T16:39:55;4.80;99.90
40676;DHT22;26359;48.750;9.314;2023-01-15T16:42:35;4.80;99.90
40676;DHT22;26359;48.750;9.314;2023-01-15T16:45:05;4.70;99.90
40676;DHT22;26359;48.750;9.314;2023-01-15T16:47:59;4.60;99.90
40676;DHT22;26359;48.750;9.314;2023-01-15T16:50:28;4.70;99.90
40676;DHT22;26359;48.750;9.314;2023-01-15T16:52:56;4.70;99.90
40676;DHT22;26359;48.750;9.314;2023-01-15T16:55:34;4.70;99.90
40676;DHT22;26359;48.750;9.314;2023-01-15T16:58:21;4.70;99.90
40676;DHT22;26359;48.750;9.314;2023-01-15T17:00:49;4.70;99.90
40676;DHT22;26359;48.750;9.314;2023-01-15T17:03:20;4.70;99.90
40676;DHT22;26359;48.750;9.314;2023-01-15T17:05:54;4.60;99.90
40676;DHT22;26359;48.750;9.314;2023-01-15T17:08:25;4.50;99.90
40676;DHT22;26359;48.750;9.314;2023-01-15T17:11:03;4.60;99.90
40676;DHT22;26359;48.750;9.314;2023-01-15T17:13:39;4.60;99.90
40676;DHT22;26359;48.750;9.314;2023-01-15T17:16:19;4.50;99.90
40676;DHT22;26359;48.750;9.314;2023-01-15T17:18:46;4.60;99.90
40676;DHT22;26359;48.750;9.314;2023-01-15T17:21:22;4.50;99.90
40676;DHT22;26359;48.750;9.314;2023-01-15T17:23:54;4.50;99.90
40676;DHT22;26359;48.750;9.314;2023-01-15T17:26:22;4.40;99.90
40676;DHT22;26359;48.750;9.314;2023-01-15T17:28:50;4.40;99.90
40676;DHT22;26359;48.750;9.314;2023-01-15T17:31:27;4.30;99.90
40676;DHT22;26359;48.750;9.314;2023-01-15T17:33:53;4.30;99.90
40676;DHT22;26359;48.750;9.314;2023-01-15T17:36:20;4.20;99.90
40676;DHT22;26359;48.750;9.314;2023-01-15T17:38:46;4.20;99.90
40676;DHT22;26359;48.750;9.314;2023-01-15T17:41:12;4.30;99.90
40676;DHT22;26359;48.750;9.314;2023-01-15T17:43:38;4.30;99.90
40676;DHT22;26359;48.750;9.314;2023-01-15T17:46:04;4.30;99.90
40676;DHT22;26359;48.750;9.314;2023-01-15T17:48:30;4.20;99.90
40676;DHT22;26359;48.750;9.314;2023-01-15T17:50:59;4.20;99.90
40676;DHT22;26359;48.750;9.314;2023-01-15T17:53:24;4.20;99.90
40676;DHT22;26359;48.750;9.314;2023-01-15T17:55:50;4.20;99.90